sensor_id;sensor_type;location;lat;lon;timestamp;P1;durP1;ratioP1;P2;durP2;ratioP2
80778;SDS011;70170;47.856;10.956;2023-07-13T00:02:14;6.72;;;5.28;;
80778;SDS011;70170;47.856;10.956;2023-07-13T00:04:39;8.40;;;5.35;;
80778;SDS011;70170;47.856;10.956;2023-07-13T00:07:05;5.90;;;4.88;;
80778;SDS011;70170;47.856;10.956;2023-07-13T00:09:30;7.85;;;4.85;;
80778;SDS011;70170;47.856;10.956;2023-07-13T00:11:56;5.65;;;4.80;;
80778;SDS011;70170;47.856;10.956;2023-07-13T00:14:23;8.57;;;5.25;;
80778;SDS011;70170;47.856;10.956;2023-07-13T00:16:49;9.40;;;5.00;;
80778;SDS011;70170;47.856;10.956;2023-07-13T00:19:15;11.43;;;5.20;;
80778;SDS011;70170;47.856;10.956;2023-07-13T00:21:41;7.50;;;4.80;;
80778;SDS011;70170;47.856;10.956;2023-07-13T00:24:10;6.30;;;4.80;;
80778;SDS011;70170;47.856;10.956;2023-07-13T00:26:40;7.55;;;4.82;;
80778;SDS011;70170;47.856;10.956;2023-07-13T00:29:10;5.25;;;4.70;;
80778;SDS011;70170;47.856;10.956;2023-07-13T00:31:36;9.32;;;5.30;;
80778;SDS011;70170;47.856;10.956;2023-07-13T00:34:02;5.72;;;4.60;;
80778;SDS011;70170;47.856;10.956;2023-07-13T00:36:29;7.75;;;4.80;;
80778;SDS011;70170;47.856;10.956;2023-07-13T00:38:54;8.07;;;5.07;;
80778;SDS011;70170;47.856;10.956;2023-07-13T00:41:20;9.60;;;5.22;;
80778;SDS011;70170;47.856;10.956;2023-07-13T00:43:45;6.97;;;4.95;;
80778;SDS011;70170;47.856;10.956;2023-07-13T00:46:16;5.55;;;4.80;;
80778;SDS011;70170;47.856;10.956;2023-07-13T00:48:45;7.20;;;5.40;;
80778;SDS011;70170;47.856;10.956;2023-07-13T00:54:37;10.30;;;5.80;;
80778;SDS011;70170;47.856;10.956;2023-07-13T00:57:07;14.02;;;5.57;;
80778;SDS011;70170;47.856;10.956;2023-07-13T00:59:34;7.78;;;5.35;;
80778;SDS011;70170;47.856;10.956;2023-07-13T01:02:01;9.80;;;5.25;;
80778;SDS011;70170;47.856;10.956;2023-07-13T01:04:28;13.45;;;5.32;;
80778;SDS011;70170;47.856;10.956;2023-07-13T01:06:53;8.98;;;5.28;;
80778;SDS011;70170;47.856;10.956;2023-07-13T01:09:19;8.18;;;5.10;;
80778;SDS011;70170;47.856;10.956;2023-07-13T01:11:45;10.27;;;4.90;;
80778;SDS011;70170;47.856;10.956;2023-07-13T01:14:11;6.25;;;4.63;;
80778;SDS011;70170;47.856;10.956;2023-07-13T01:16:37;8.60;;;4.82;;
80778;SDS011;70170;47.856;10.956;2023-07-13T01:19:06;10.55;;;4.97;;
80778;SDS011;70170;47.856;10.956;2023-07-13T01:21:38;10.48;;;5.15;;
80778;SDS011;70170;47.856;10.956;2023-07-13T01:24:08;10.70;;;4.65;;
80778;SDS011;70170;47.856;10.956;2023-07-13T01:26:34;7.22;;;4.90;;
80778;SDS011;70170;47.856;10.956;2023-07-13T01:28:59;5.60;;;4.38;;
80778;SDS011;70170;47.856;10.956;2023-07-13T01:31:24;4.80;;;4.15;;
80778;SDS011;70170;47.856;10.956;2023-07-13T01:33:50;5.07;;;4.00;;
80778;SDS011;70170;47.856;10.956;2023-07-13T01:36:15;4.35;;;3.28;;
80778;SDS011;70170;47.856;10.956;2023-07-13T01:38:40;7.35;;;4.40;;
80778;SDS011;70170;47.856;10.956;2023-07-13T01:41:06;6.03;;;4.55;;
80778;SDS011;70170;47.856;10.956;2023-07-13T01:43:32;5.40;;;4.30;;
80778;SDS011;70170;47.856;10.956;2023-07-13T01:45:57;4.35;;;3.95;;
80778;SDS011;70170;47.856;10.956;2023-07-13T01:48:22;6.53;;;4.35;;
80778;SDS011;70170;47.856;10.956;2023-07-13T01:50:48;6.78;;;4.80;;
80778;SDS011;70170;47.856;10.956;2023-07-13T01:53:13;9.10;;;4.38;;
80778;SDS011;70170;47.856;10.956;2023-07-13T01:55:39;7.53;;;4.13;;
80778;SDS011;70170;47.856;10.956;2023-07-13T01:58:04;6.53;;;4.13;;
80778;SDS011;70170;47.856;10.956;2023-07-13T02:00:30;4.82;;;3.70;;
80778;SDS011;70170;47.856;10.956;2023-07-13T02:02:56;5.10;;;3.55;;
80778;SDS011;70170;47.856;10.956;2023-07-13T02:05:21;5.63;;;3.60;;
80778;SDS011;70170;47.856;10.956;2023-07-13T02:07:47;5.85;;;3.28;;
80778;SDS011;70170;47.856;10.956;2023-07-13T02:10:13;7.28;;;3.80;;
80778;SDS011;70170;47.856;10.956;2023-07-13T02:12:38;3.90;;;3.08;;
80778;SDS011;70170;47.856;10.956;2023-07-13T02:15:04;6.88;;;3.13;;
80778;SDS011;70170;47.856;10.956;2023-07-13T02:17:30;3.92;;;3.30;;
80778;SDS011;70170;47.856;10.956;2023-07-13T02:19:57;5.50;;;3.20;;
80778;SDS011;70170;47.856;10.956;2023-07-13T02:22:22;4.40;;;3.00;;
80778;SDS011;70170;47.856;10.956;2023-07-13T02:24:48;4.18;;;3.03;;
80778;SDS011;70170;47.856;10.956;2023-07-13T02:27:13;3.00;;;2.80;;
80778;SDS011;70170;47.856;10.956;2023-07-13T02:29:39;4.63;;;3.20;;
80778;SDS011;70170;47.856;10.956;2023-07-13T02:32:04;5.32;;;3.40;;
80778;SDS011;70170;47.856;10.956;2023-07-13T02:34:30;4.15;;;3.42;;
80778;SDS011;70170;47.856;10.956;2023-07-13T02:36:56;6.25;;;3.67;;
80778;SDS011;70170;47.856;10.956;2023-07-13T02:39:21;6.03;;;3.55;;
80778;SDS011;70170;47.856;10.956;2023-07-13T02:41:46;3.78;;;3.25;;
80778;SDS011;70170;47.856;10.956;2023-07-13T02:44:12;5.00;;;3.10;;
80778;SDS011;70170;47.856;10.956;2023-07-13T02:46:38;5.25;;;3.28;;
80778;SDS011;70170;47.856;10.956;2023-07-13T02:49:04;4.75;;;3.13;;
80778;SDS011;70170;47.856;10.956;2023-07-13T02:51:30;5.80;;;3.20;;
80778;SDS011;70170;47.856;10.956;2023-07-13T02:53:55;6.45;;;3.13;;
80778;SDS011;70170;47.856;10.956;2023-07-13T02:56:26;4.05;;;3.00;;
80778;SDS011;70170;47.856;10.956;2023-07-13T02:58:52;5.82;;;3.92;;
80778;SDS011;70170;47.856;10.956;2023-07-13T03:01:19;6.78;;;3.92;;
80778;SDS011;70170;47.856;10.956;2023-07-13T03:03:45;6.82;;;3.75;;
80778;SDS011;70170;47.856;10.956;2023-07-13T03:06:11;4.47;;;4.07;;
80778;SDS011;70170;47.856;10.956;2023-07-13T03:08:37;6.70;;;3.90;;
80778;SDS011;70170;47.856;10.956;2023-07-13T03:11:04;5.72;;;3.80;;
80778;SDS011;70170;47.856;10.956;2023-07-13T03:13:30;9.15;;;4.00;;
80778;SDS011;70170;47.856;10.956;2023-07-13T03:15:56;5.88;;;4.30;;
80778;SDS011;70170;47.856;10.956;2023-07-13T03:18:21;7.03;;;4.18;;
80778;SDS011;70170;47.856;10.956;2023-07-13T03:20:49;4.72;;;4.05;;
80778;SDS011;70170;47.856;10.956;2023-07-13T03:23:16;8.73;;;4.38;;
80778;SDS011;70170;47.856;10.956;2023-07-13T03:25:41;5.28;;;4.40;;
80778;SDS011;70170;47.856;10.956;2023-07-13T03:28:07;6.10;;;4.72;;
80778;SDS011;70170;47.856;10.956;2023-07-13T03:30:32;9.88;;;5.43;;
80778;SDS011;70170;47.856;10.956;2023-07-13T03:32:57;8.50;;;5.63;;
80778;SDS011;70170;47.856;10.956;2023-07-13T03:35:23;8.27;;;5.43;;
80778;SDS011;70170;47.856;10.956;2023-07-13T03:37:48;8.20;;;5.53;;
80778;SDS011;70170;47.856;10.956;2023-07-13T03:40:13;7.65;;;5.50;;
80778;SDS011;70170;47.856;10.956;2023-07-13T03:42:39;6.60;;;5.38;;
80778;SDS011;70170;47.856;10.956;2023-07-13T03:45:04;9.57;;;5.60;;
80778;SDS011;70170;47.856;10.956;2023-07-13T03:47:30;10.63;;;6.35;;
80778;SDS011;70170;47.856;10.956;2023-07-13T03:49:56;11.27;;;6.80;;
80778;SDS011;70170;47.856;10.956;2023-07-13T03:52:21;9.88;;;6.68;;
80778;SDS011;70170;47.856;10.956;2023-07-13T03:54:46;12.55;;;7.05;;
80778;SDS011;70170;47.856;10.956;2023-07-13T03:57:12;9.43;;;6.22;;
80778;SDS011;70170;47.856;10.956;2023-07-13T03:59:37;11.43;;;6.68;;
80778;SDS011;70170;47.856;10.956;2023-07-13T04:02:02;10.38;;;6.93;;
80778;SDS011;70170;47.856;10.956;2023-07-13T04:04:29;13.05;;;6.25;;
80778;SDS011;70170;47.856;10.956;2023-07-13T04:06:55;8.88;;;6.00;;
80778;SDS011;70170;47.856;10.956;2023-07-13T04:09:21;10.73;;;6.07;;
80778;SDS011;70170;47.856;10.956;2023-07-13T04:11:46;9.80;;;6.32;;
80778;SDS011;70170;47.856;10.956;2023-07-13T04:14:12;7.88;;;6.07;;
80778;SDS011;70170;47.856;10.956;2023-07-13T04:16:37;9.60;;;5.82;;
80778;SDS011;70170;47.856;10.956;2023-07-13T04:19:02;11.73;;;5.95;;
80778;SDS011;70170;47.856;10.956;2023-07-13T04:21:28;8.38;;;5.60;;
80778;SDS011;70170;47.856;10.956;2023-07-13T04:23:55;7.90;;;5.35;;
80778;SDS011;70170;47.856;10.956;2023-07-13T04:26:21;9.23;;;5.30;;
80778;SDS011;70170;47.856;10.956;2023-07-13T04:28:47;16.48;;;5.32;;
80778;SDS011;70170;47.856;10.956;2023-07-13T04:31:13;10.35;;;5.18;;
80778;SDS011;70170;47.856;10.956;2023-07-13T04:33:38;8.70;;;5.32;;
80778;SDS011;70170;47.856;10.956;2023-07-13T04:36:04;11.98;;;5.50;;
80778;SDS011;70170;47.856;10.956;2023-07-13T04:38:30;13.65;;;5.22;;
80778;SDS011;70170;47.856;10.956;2023-07-13T04:40:59;8.18;;;4.38;;
80778;SDS011;70170;47.856;10.956;2023-07-13T04:43:26;8.35;;;4.68;;
80778;SDS011;70170;47.856;10.956;2023-07-13T04:45:52;9.57;;;4.72;;
80778;SDS011;70170;47.856;10.956;2023-07-13T04:48:17;8.25;;;4.30;;
80778;SDS011;70170;47.856;10.956;2023-07-13T04:50:43;5.93;;;4.38;;
80778;SDS011;70170;47.856;10.956;2023-07-13T04:53:09;5.65;;;4.47;;
80778;SDS011;70170;47.856;10.956;2023-07-13T04:55:35;7.95;;;4.63;;
80778;SDS011;70170;47.856;10.956;2023-07-13T04:58:01;7.30;;;4.65;;
80778;SDS011;70170;47.856;10.956;2023-07-13T05:00:27;6.68;;;4.10;;
80778;SDS011;70170;47.856;10.956;2023-07-13T05:02:54;5.20;;;4.70;;
80778;SDS011;70170;47.856;10.956;2023-07-13T05:05:20;9.23;;;5.82;;
80778;SDS011;70170;47.856;10.956;2023-07-13T05:07:46;14.20;;;4.75;;
80778;SDS011;70170;47.856;10.956;2023-07-13T05:10:11;9.98;;;4.93;;
80778;SDS011;70170;47.856;10.956;2023-07-13T05:12:36;12.30;;;5.07;;
80778;SDS011;70170;47.856;10.956;2023-07-13T05:15:02;5.93;;;4.35;;
80778;SDS011;70170;47.856;10.956;2023-07-13T05:17:28;7.70;;;4.32;;
80778;SDS011;70170;47.856;10.956;2023-07-13T05:19:53;7.97;;;4.40;;
80778;SDS011;70170;47.856;10.956;2023-07-13T05:22:19;7.50;;;4.70;;
80778;SDS011;70170;47.856;10.956;2023-07-13T05:24:44;3.90;;;3.53;;
80778;SDS011;70170;47.856;10.956;2023-07-13T05:27:09;7.32;;;4.00;;
80778;SDS011;70170;47.856;10.956;2023-07-13T05:29:35;6.28;;;3.92;;
80778;SDS011;70170;47.856;10.956;2023-07-13T05:32:00;4.20;;;3.78;;
80778;SDS011;70170;47.856;10.956;2023-07-13T05:34:25;10.98;;;3.80;;
80778;SDS011;70170;47.856;10.956;2023-07-13T05:36:51;6.60;;;3.72;;
80778;SDS011;70170;47.856;10.956;2023-07-13T05:39:17;11.88;;;3.83;;
80778;SDS011;70170;47.856;10.956;2023-07-13T05:41:43;5.78;;;3.60;;
80778;SDS011;70170;47.856;10.956;2023-07-13T05:44:08;6.45;;;3.20;;
80778;SDS011;70170;47.856;10.956;2023-07-13T05:46:33;7.32;;;3.50;;
80778;SDS011;70170;47.856;10.956;2023-07-13T05:48:59;5.32;;;3.22;;
80778;SDS011;70170;47.856;10.956;2023-07-13T05:51:25;6.15;;;3.35;;
80778;SDS011;70170;47.856;10.956;2023-07-13T05:53:50;5.78;;;3.28;;
80778;SDS011;70170;47.856;10.956;2023-07-13T05:56:15;4.20;;;3.20;;
80778;SDS011;70170;47.856;10.956;2023-07-13T05:58:41;4.05;;;3.35;;
80778;SDS011;70170;47.856;10.956;2023-07-13T06:01:08;3.78;;;2.95;;
80778;SDS011;70170;47.856;10.956;2023-07-13T06:03:36;10.63;;;3.65;;
80778;SDS011;70170;47.856;10.956;2023-07-13T06:06:03;5.03;;;3.67;;
80778;SDS011;70170;47.856;10.956;2023-07-13T06:08:30;3.95;;;3.33;;
80778;SDS011;70170;47.856;10.956;2023-07-13T06:11:01;4.80;;;3.30;;
80778;SDS011;70170;47.856;10.956;2023-07-13T06:13:27;5.32;;;3.63;;
80778;SDS011;70170;47.856;10.956;2023-07-13T06:15:53;8.15;;;3.30;;
80778;SDS011;70170;47.856;10.956;2023-07-13T06:18:18;9.35;;;3.38;;
80778;SDS011;70170;47.856;10.956;2023-07-13T06:20:43;4.75;;;3.33;;
80778;SDS011;70170;47.856;10.956;2023-07-13T06:23:08;4.22;;;3.30;;
80778;SDS011;70170;47.856;10.956;2023-07-13T06:25:34;4.07;;;3.00;;
80778;SDS011;70170;47.856;10.956;2023-07-13T06:27:59;4.03;;;2.88;;
80778;SDS011;70170;47.856;10.956;2023-07-13T06:30:25;6.50;;;3.03;;
80778;SDS011;70170;47.856;10.956;2023-07-13T06:32:50;4.10;;;2.90;;
80778;SDS011;70170;47.856;10.956;2023-07-13T06:35:16;4.32;;;3.03;;
80778;SDS011;70170;47.856;10.956;2023-07-13T06:37:41;4.57;;;2.30;;
80778;SDS011;70170;47.856;10.956;2023-07-13T06:40:06;4.07;;;2.30;;
80778;SDS011;70170;47.856;10.956;2023-07-13T06:42:32;6.50;;;2.28;;
80778;SDS011;70170;47.856;10.956;2023-07-13T06:44:58;7.95;;;2.33;;
80778;SDS011;70170;47.856;10.956;2023-07-13T06:47:23;3.17;;;2.25;;
80778;SDS011;70170;47.856;10.956;2023-07-13T06:49:48;1.95;;;1.83;;
80778;SDS011;70170;47.856;10.956;2023-07-13T06:52:14;3.85;;;2.40;;
80778;SDS011;70170;47.856;10.956;2023-07-13T06:54:39;5.38;;;2.20;;
80778;SDS011;70170;47.856;10.956;2023-07-13T06:57:04;4.50;;;2.40;;
80778;SDS011;70170;47.856;10.956;2023-07-13T06:59:30;6.60;;;2.15;;
80778;SDS011;70170;47.856;10.956;2023-07-13T07:01:55;2.72;;;2.35;;
80778;SDS011;70170;47.856;10.956;2023-07-13T07:04:20;6.88;;;2.72;;
80778;SDS011;70170;47.856;10.956;2023-07-13T07:06:46;4.55;;;2.33;;
80778;SDS011;70170;47.856;10.956;2023-07-13T07:09:11;2.55;;;2.35;;
80778;SDS011;70170;47.856;10.956;2023-07-13T07:11:36;4.60;;;3.00;;
80778;SDS011;70170;47.856;10.956;2023-07-13T07:14:02;2.90;;;2.63;;
80778;SDS011;70170;47.856;10.956;2023-07-13T07:16:27;4.82;;;2.88;;
80778;SDS011;70170;47.856;10.956;2023-07-13T07:18:52;4.53;;;2.70;;
80778;SDS011;70170;47.856;10.956;2023-07-13T07:21:18;7.68;;;3.08;;
80778;SDS011;70170;47.856;10.956;2023-07-13T07:23:43;4.20;;;3.03;;
80778;SDS011;70170;47.856;10.956;2023-07-13T07:26:09;9.40;;;3.20;;
80778;SDS011;70170;47.856;10.956;2023-07-13T07:28:35;6.70;;;3.25;;
80778;SDS011;70170;47.856;10.956;2023-07-13T07:31:01;3.97;;;3.13;;
80778;SDS011;70170;47.856;10.956;2023-07-13T07:33:26;11.63;;;3.30;;
80778;SDS011;70170;47.856;10.956;2023-07-13T07:35:51;5.30;;;2.90;;
80778;SDS011;70170;47.856;10.956;2023-07-13T07:38:17;6.18;;;2.95;;
80778;SDS011;70170;47.856;10.956;2023-07-13T07:40:42;6.03;;;3.13;;
80778;SDS011;70170;47.856;10.956;2023-07-13T07:43:08;5.97;;;3.05;;
80778;SDS011;70170;47.856;10.956;2023-07-13T07:45:34;4.47;;;3.28;;
80778;SDS011;70170;47.856;10.956;2023-07-13T07:48:00;7.22;;;3.30;;
80778;SDS011;70170;47.856;10.956;2023-07-13T07:50:26;6.03;;;3.47;;
80778;SDS011;70170;47.856;10.956;2023-07-13T07:52:52;8.95;;;3.97;;
80778;SDS011;70170;47.856;10.956;2023-07-13T07:55:17;4.88;;;3.78;;
80778;SDS011;70170;47.856;10.956;2023-07-13T07:57:42;4.82;;;3.38;;
80778;SDS011;70170;47.856;10.956;2023-07-13T08:00:08;6.43;;;3.50;;
80778;SDS011;70170;47.856;10.956;2023-07-13T08:02:34;5.70;;;3.78;;
80778;SDS011;70170;47.856;10.956;2023-07-13T08:04:59;5.03;;;2.80;;
80778;SDS011;70170;47.856;10.956;2023-07-13T08:07:24;5.50;;;3.63;;
80778;SDS011;70170;47.856;10.956;2023-07-13T08:09:53;3.78;;;2.97;;
80778;SDS011;70170;47.856;10.956;2023-07-13T08:12:19;5.10;;;3.17;;
80778;SDS011;70170;47.856;10.956;2023-07-13T08:14:44;9.88;;;3.22;;
80778;SDS011;70170;47.856;10.956;2023-07-13T08:17:09;6.20;;;3.55;;
80778;SDS011;70170;47.856;10.956;2023-07-13T08:19:35;13.48;;;3.15;;
80778;SDS011;70170;47.856;10.956;2023-07-13T08:22:00;4.35;;;2.65;;
80778;SDS011;70170;47.856;10.956;2023-07-13T08:24:25;5.25;;;2.63;;
80778;SDS011;70170;47.856;10.956;2023-07-13T08:26:51;3.10;;;2.20;;
80778;SDS011;70170;47.856;10.956;2023-07-13T08:29:17;4.18;;;2.40;;
80778;SDS011;70170;47.856;10.956;2023-07-13T08:31:42;3.22;;;2.28;;
80778;SDS011;70170;47.856;10.956;2023-07-13T08:34:07;3.65;;;2.00;;
80778;SDS011;70170;47.856;10.956;2023-07-13T08:36:33;4.32;;;2.45;;
80778;SDS011;70170;47.856;10.956;2023-07-13T08:38:58;3.53;;;2.05;;
80778;SDS011;70170;47.856;10.956;2023-07-13T08:41:23;2.50;;;2.30;;
80778;SDS011;70170;47.856;10.956;2023-07-13T08:43:50;6.22;;;2.30;;
80778;SDS011;70170;47.856;10.956;2023-07-13T08:46:20;4.90;;;2.58;;
80778;SDS011;70170;47.856;10.956;2023-07-13T08:48:52;2.60;;;2.10;;
80778;SDS011;70170;47.856;10.956;2023-07-13T08:51:25;3.55;;;2.40;;
80778;SDS011;70170;47.856;10.956;2023-07-13T08:53:57;4.47;;;2.50;;
80778;SDS011;70170;47.856;10.956;2023-07-13T08:56:26;3.92;;;2.47;;
80778;SDS011;70170;47.856;10.956;2023-07-13T08:58:56;3.55;;;2.20;;
80778;SDS011;70170;47.856;10.956;2023-07-13T09:06:36;4.35;;;1.90;;
80778;SDS011;70170;47.856;10.956;2023-07-13T09:09:34;10.13;;;2.63;;
80778;SDS011;70170;47.856;10.956;2023-07-13T09:14:45;1.75;;;1.63;;
80778;SDS011;70170;47.856;10.956;2023-07-13T09:17:18;3.95;;;2.22;;
80778;SDS011;70170;47.856;10.956;2023-07-13T09:19:57;2.95;;;1.98;;
80778;SDS011;70170;47.856;10.956;2023-07-13T09:22:29;8.57;;;2.03;;
80778;SDS011;70170;47.856;10.956;2023-07-13T09:25:04;5.82;;;2.33;;
80778;SDS011;70170;47.856;10.956;2023-07-13T09:27:39;3.42;;;2.20;;
80778;SDS011;70170;47.856;10.956;2023-07-13T09:35:12;5.47;;;2.30;;
80778;SDS011;70170;47.856;10.956;2023-07-13T09:37:40;4.15;;;2.20;;
80778;SDS011;70170;47.856;10.956;2023-07-13T09:40:11;3.72;;;2.40;;
80778;SDS011;70170;47.856;10.956;2023-07-13T09:42:45;7.25;;;2.15;;
80778;SDS011;70170;47.856;10.956;2023-07-13T09:45:11;3.95;;;2.13;;
80778;SDS011;70170;47.856;10.956;2023-07-13T09:47:51;2.47;;;1.92;;
80778;SDS011;70170;47.856;10.956;2023-07-13T09:50:31;3.17;;;2.08;;
80778;SDS011;70170;47.856;10.956;2023-07-13T09:52:56;6.03;;;1.90;;
80778;SDS011;70170;47.856;10.956;2023-07-13T09:58:03;4.68;;;2.17;;
80778;SDS011;70170;47.856;10.956;2023-07-13T10:00:39;4.43;;;1.42;;
80778;SDS011;70170;47.856;10.956;2023-07-13T10:05:48;1.58;;;1.40;;
80778;SDS011;70170;47.856;10.956;2023-07-13T10:08:20;4.85;;;1.88;;
80778;SDS011;70170;47.856;10.956;2023-07-13T10:11:01;3.17;;;1.70;;
80778;SDS011;70170;47.856;10.956;2023-07-13T10:13:50;6.60;;;1.75;;
80778;SDS011;70170;47.856;10.956;2023-07-13T10:16:20;2.38;;;1.55;;
80778;SDS011;70170;47.856;10.956;2023-07-13T10:18:48;1.40;;;1.30;;
80778;SDS011;70170;47.856;10.956;2023-07-13T10:21:17;5.38;;;1.70;;
80778;SDS011;70170;47.856;10.956;2023-07-13T10:23:47;2.28;;;1.70;;
80778;SDS011;70170;47.856;10.956;2023-07-13T10:26:17;4.30;;;1.50;;
80778;SDS011;70170;47.856;10.956;2023-07-13T10:28:46;3.50;;;1.50;;
80778;SDS011;70170;47.856;10.956;2023-07-13T10:31:16;3.85;;;1.30;;
80778;SDS011;70170;47.856;10.956;2023-07-13T10:33:42;1.60;;;1.38;;
80778;SDS011;70170;47.856;10.956;2023-07-13T10:38:48;5.00;;;2.20;;
80778;SDS011;70170;47.856;10.956;2023-07-13T10:41:17;3.60;;;1.45;;
80778;SDS011;70170;47.856;10.956;2023-07-13T10:43:46;3.33;;;1.67;;
80778;SDS011;70170;47.856;10.956;2023-07-13T10:46:16;4.30;;;1.75;;
80778;SDS011;70170;47.856;10.956;2023-07-13T10:48:44;9.05;;;1.50;;
80778;SDS011;70170;47.856;10.956;2023-07-13T10:51:14;9.55;;;1.60;;
80778;SDS011;70170;47.856;10.956;2023-07-13T10:53:42;8.32;;;1.70;;
80778;SDS011;70170;47.856;10.956;2023-07-13T10:56:22;3.58;;;1.73;;
80778;SDS011;70170;47.856;10.956;2023-07-13T11:01:40;2.88;;;1.70;;
80778;SDS011;70170;47.856;10.956;2023-07-13T11:04:08;2.08;;;1.50;;
80778;SDS011;70170;47.856;10.956;2023-07-13T11:06:37;4.93;;;1.65;;
80778;SDS011;70170;47.856;10.956;2023-07-13T11:22:44;4.70;;;1.77;;
80778;SDS011;70170;47.856;10.956;2023-07-13T11:27:45;13.55;;;2.10;;
80778;SDS011;70170;47.856;10.956;2023-07-13T11:30:25;3.58;;;1.63;;
80778;SDS011;70170;47.856;10.956;2023-07-13T11:35:47;5.40;;;1.80;;
80778;SDS011;70170;47.856;10.956;2023-07-13T11:40:48;4.05;;;1.90;;
80778;SDS011;70170;47.856;10.956;2023-07-13T11:43:17;3.03;;;1.70;;
80778;SDS011;70170;47.856;10.956;2023-07-13T11:45:43;2.95;;;2.08;;
80778;SDS011;70170;47.856;10.956;2023-07-13T11:48:22;3.13;;;1.77;;
80778;SDS011;70170;47.856;10.956;2023-07-13T11:51:01;4.65;;;1.98;;
80778;SDS011;70170;47.856;10.956;2023-07-13T11:53:35;2.28;;;1.65;;
80778;SDS011;70170;47.856;10.956;2023-07-13T11:56:04;3.67;;;1.90;;
80778;SDS011;70170;47.856;10.956;2023-07-13T11:58:31;3.03;;;1.77;;
80778;SDS011;70170;47.856;10.956;2023-07-13T12:00:58;6.30;;;1.90;;
80778;SDS011;70170;47.856;10.956;2023-07-13T12:03:26;2.95;;;1.85;;
80778;SDS011;70170;47.856;10.956;2023-07-13T12:06:05;4.00;;;1.70;;
80778;SDS011;70170;47.856;10.956;2023-07-13T12:08:44;5.35;;;2.10;;
80778;SDS011;70170;47.856;10.956;2023-07-13T12:11:15;4.05;;;2.10;;
80778;SDS011;70170;47.856;10.956;2023-07-13T12:13:43;5.05;;;1.85;;
80778;SDS011;70170;47.856;10.956;2023-07-13T12:16:14;2.83;;;1.83;;
80778;SDS011;70170;47.856;10.956;2023-07-13T12:18:49;3.90;;;1.60;;
80778;SDS011;70170;47.856;10.956;2023-07-13T12:21:18;2.92;;;1.73;;
80778;SDS011;70170;47.856;10.956;2023-07-13T12:23:44;2.40;;;1.60;;
80778;SDS011;70170;47.856;10.956;2023-07-13T12:26:14;4.82;;;1.70;;
80778;SDS011;70170;47.856;10.956;2023-07-13T12:28:48;3.70;;;1.52;;
80778;SDS011;70170;47.856;10.956;2023-07-13T12:31:24;2.97;;;1.88;;
80778;SDS011;70170;47.856;10.956;2023-07-13T12:36:33;4.57;;;1.65;;
80778;SDS011;70170;47.856;10.956;2023-07-13T12:39:03;6.18;;;1.83;;
80778;SDS011;70170;47.856;10.956;2023-07-13T12:41:37;1.77;;;1.63;;
80778;SDS011;70170;47.856;10.956;2023-07-13T12:44:02;4.90;;;1.70;;
80778;SDS011;70170;47.856;10.956;2023-07-13T12:46:28;9.05;;;1.90;;
80778;SDS011;70170;47.856;10.956;2023-07-13T12:48:54;2.55;;;1.90;;
80778;SDS011;70170;47.856;10.956;2023-07-13T12:51:22;3.90;;;1.67;;
80778;SDS011;70170;47.856;10.956;2023-07-13T12:53:55;3.42;;;1.60;;
80778;SDS011;70170;47.856;10.956;2023-07-13T12:56:24;3.55;;;1.85;;
80778;SDS011;70170;47.856;10.956;2023-07-13T12:58:57;4.53;;;1.88;;
80778;SDS011;70170;47.856;10.956;2023-07-13T13:01:26;2.38;;;1.70;;
80778;SDS011;70170;47.856;10.956;2023-07-13T13:03:54;2.45;;;1.70;;
80778;SDS011;70170;47.856;10.956;2023-07-13T13:06:24;3.63;;;1.95;;
80778;SDS011;70170;47.856;10.956;2023-07-13T13:08:52;3.60;;;1.80;;
80778;SDS011;70170;47.856;10.956;2023-07-13T13:11:20;2.60;;;1.90;;
80778;SDS011;70170;47.856;10.956;2023-07-13T13:13:47;5.40;;;2.00;;
80778;SDS011;70170;47.856;10.956;2023-07-13T13:16:16;2.45;;;1.60;;
80778;SDS011;70170;47.856;10.956;2023-07-13T13:18:42;2.70;;;1.80;;
80778;SDS011;70170;47.856;10.956;2023-07-13T13:21:08;2.45;;;1.58;;
80778;SDS011;70170;47.856;10.956;2023-07-13T13:23:35;3.05;;;1.85;;
80778;SDS011;70170;47.856;10.956;2023-07-13T13:26:00;4.28;;;1.90;;
80778;SDS011;70170;47.856;10.956;2023-07-13T13:28:26;4.93;;;1.73;;
80778;SDS011;70170;47.856;10.956;2023-07-13T13:30:52;3.22;;;1.63;;
80778;SDS011;70170;47.856;10.956;2023-07-13T13:33:18;4.72;;;1.88;;
80778;SDS011;70170;47.856;10.956;2023-07-13T13:35:45;2.33;;;1.83;;
80778;SDS011;70170;47.856;10.956;2023-07-13T13:38:14;2.30;;;1.77;;
80778;SDS011;70170;47.856;10.956;2023-07-13T13:40:42;3.22;;;2.00;;
80778;SDS011;70170;47.856;10.956;2023-07-13T13:43:13;3.88;;;1.90;;
80778;SDS011;70170;47.856;10.956;2023-07-13T13:45:43;6.00;;;2.00;;
80778;SDS011;70170;47.856;10.956;2023-07-13T13:48:14;3.20;;;2.08;;
80778;SDS011;70170;47.856;10.956;2023-07-13T13:50:41;2.03;;;1.70;;
80778;SDS011;70170;47.856;10.956;2023-07-13T13:53:09;4.22;;;2.33;;
80778;SDS011;70170;47.856;10.956;2023-07-13T13:55:36;3.53;;;1.73;;
80778;SDS011;70170;47.856;10.956;2023-07-13T13:58:01;10.15;;;2.20;;
80778;SDS011;70170;47.856;10.956;2023-07-13T14:00:27;4.13;;;1.75;;
80778;SDS011;70170;47.856;10.956;2023-07-13T14:02:52;4.68;;;1.80;;
80778;SDS011;70170;47.856;10.956;2023-07-13T14:05:24;3.28;;;1.83;;
80778;SDS011;70170;47.856;10.956;2023-07-13T14:07:53;5.75;;;2.03;;
80778;SDS011;70170;47.856;10.956;2023-07-13T14:10:19;4.38;;;1.80;;
80778;SDS011;70170;47.856;10.956;2023-07-13T14:12:45;8.35;;;2.03;;
80778;SDS011;70170;47.856;10.956;2023-07-13T14:15:21;5.38;;;1.98;;
80778;SDS011;70170;47.856;10.956;2023-07-13T14:17:51;2.83;;;1.77;;
80778;SDS011;70170;47.856;10.956;2023-07-13T14:20:18;3.67;;;1.85;;
80778;SDS011;70170;47.856;10.956;2023-07-13T14:22:45;6.03;;;2.00;;
80778;SDS011;70170;47.856;10.956;2023-07-13T14:25:11;4.80;;;2.05;;
80778;SDS011;70170;47.856;10.956;2023-07-13T14:27:38;6.82;;;1.70;;
80778;SDS011;70170;47.856;10.956;2023-07-13T14:30:08;3.85;;;1.80;;
80778;SDS011;70170;47.856;10.956;2023-07-13T14:32:37;2.25;;;1.77;;
80778;SDS011;70170;47.856;10.956;2023-07-13T14:35:03;7.28;;;2.20;;
80778;SDS011;70170;47.856;10.956;2023-07-13T14:37:28;2.70;;;2.00;;
80778;SDS011;70170;47.856;10.956;2023-07-13T14:39:54;3.33;;;1.90;;
80778;SDS011;70170;47.856;10.956;2023-07-13T14:42:19;1.88;;;1.73;;
80778;SDS011;70170;47.856;10.956;2023-07-13T14:44:44;4.00;;;1.80;;
80778;SDS011;70170;47.856;10.956;2023-07-13T14:47:10;2.50;;;1.73;;
80778;SDS011;70170;47.856;10.956;2023-07-13T14:49:37;2.97;;;1.90;;
80778;SDS011;70170;47.856;10.956;2023-07-13T14:52:12;2.33;;;1.88;;
80778;SDS011;70170;47.856;10.956;2023-07-13T14:54:40;4.45;;;2.05;;
80778;SDS011;70170;47.856;10.956;2023-07-13T14:57:15;5.50;;;2.58;;
80778;SDS011;70170;47.856;10.956;2023-07-13T15:02:17;6.78;;;2.03;;
80778;SDS011;70170;47.856;10.956;2023-07-13T15:04:43;3.97;;;1.70;;
80778;SDS011;70170;47.856;10.956;2023-07-13T15:07:09;4.03;;;2.13;;
80778;SDS011;70170;47.856;10.956;2023-07-13T15:09:36;9.65;;;1.70;;
80778;SDS011;70170;47.856;10.956;2023-07-13T15:12:01;3.80;;;1.70;;
80778;SDS011;70170;47.856;10.956;2023-07-13T15:14:27;3.85;;;2.20;;
80778;SDS011;70170;47.856;10.956;2023-07-13T15:16:54;4.40;;;1.90;;
80778;SDS011;70170;47.856;10.956;2023-07-13T15:19:20;19.60;;;2.15;;
80778;SDS011;70170;47.856;10.956;2023-07-13T15:21:48;3.05;;;1.88;;
80778;SDS011;70170;47.856;10.956;2023-07-13T15:24:14;4.32;;;1.95;;
80778;SDS011;70170;47.856;10.956;2023-07-13T15:26:40;5.03;;;1.92;;
80778;SDS011;70170;47.856;10.956;2023-07-13T15:29:10;3.67;;;1.75;;